createdAt,value
2022-09-25T00:02:18.217Z,1.60
2022-09-25T00:05:20.080Z,1.85
2022-09-25T00:08:21.922Z,1.98
2022-09-25T00:11:27.592Z,1.93
2022-09-25T00:14:29.432Z,2.20
2022-09-25T00:17:31.309Z,2.80
2022-09-25T00:20:36.811Z,2.30
2022-09-25T00:23:39.092Z,3.13
2022-09-25T00:26:42.261Z,2.85
2022-09-25T00:29:44.154Z,2.75
2022-09-25T00:32:45.967Z,2.90
2022-09-25T00:35:47.768Z,2.97
2022-09-25T00:38:50.725Z,3.20
2022-09-25T00:41:53.285Z,3.40
2022-09-25T00:45:24.665Z,2.65
2022-09-25T00:48:26.503Z,2.75
2022-09-25T00:51:34.870Z,2.70
2022-09-25T00:54:45.009Z,3.00
2022-09-25T00:57:47.270Z,2.70
2022-09-25T01:00:49.325Z,3.20
2022-09-25T01:03:51.212Z,2.58
2022-09-25T01:06:53.979Z,2.87
2022-09-25T01:09:59.403Z,2.65
2022-09-25T01:13:01.293Z,2.67
2022-09-25T01:16:12.043Z,2.90
2022-09-25T01:19:41.205Z,2.88
2022-09-25T01:23:01.303Z,3.03
2022-09-25T01:26:24.852Z,3.13
2022-09-25T01:29:53.936Z,3.40
2022-09-25T01:33:14.698Z,2.90
2022-09-25T01:36:46.676Z,2.67
2022-09-25T01:40:11.556Z,2.60
2022-09-25T01:43:18.287Z,2.47
2022-09-25T01:46:21.985Z,2.58
2022-09-25T01:49:44.679Z,2.65
2022-09-25T01:52:52.080Z,2.40
2022-09-25T01:55:59.382Z,2.30
2022-09-25T01:59:07.218Z,2.47
2022-09-25T02:02:13.731Z,2.13
2022-09-25T02:05:28.180Z,2.33
2022-09-25T02:08:35.780Z,2.40
2022-09-25T02:11:43.595Z,2.50
2022-09-25T02:14:49.304Z,2.33
2022-09-25T02:18:13.729Z,2.28
2022-09-25T02:21:54.776Z,2.05
2022-09-25T02:25:00.703Z,2.05
2022-09-25T02:28:02.530Z,1.90
2022-09-25T02:31:07.085Z,2.23
2022-09-25T02:34:14.506Z,1.88
2022-09-25T02:37:17.532Z,2.30
2022-09-25T02:40:19.498Z,1.75
2022-09-25T02:43:21.996Z,2.20
2022-09-25T02:46:35.739Z,2.28
2022-09-25T02:50:00.975Z,2.30
2022-09-25T02:53:27.641Z,2.63
2022-09-25T02:56:34.249Z,2.25
2022-09-25T02:59:42.464Z,2.10
2022-09-25T03:02:49.576Z,2.40
2022-09-25T03:05:56.317Z,2.28
2022-09-25T03:08:58.412Z,2.38
2022-09-25T03:12:04.421Z,2.42
2022-09-25T03:15:06.921Z,2.40
2022-09-25T03:18:09.471Z,2.08
2022-09-25T03:21:11.410Z,2.50
2022-09-25T03:24:13.580Z,2.78
2022-09-25T03:27:15.444Z,2.45
2022-09-25T03:30:17.336Z,2.57
2022-09-25T03:33:19.126Z,2.47
2022-09-25T03:36:22.357Z,2.60
2022-09-25T03:39:24.225Z,2.47
2022-09-25T03:42:28.168Z,2.40
2022-09-25T03:45:29.993Z,2.80
2022-09-25T03:48:32.284Z,2.97
2022-09-25T03:51:34.219Z,2.80
2022-09-25T03:54:36.055Z,2.78
2022-09-25T03:57:39.247Z,2.90
2022-09-25T04:00:41.420Z,3.30
2022-09-25T04:03:47.412Z,3.20
2022-09-25T04:06:49.341Z,2.95
2022-09-25T04:09:51.279Z,2.60
2022-09-25T04:12:54.440Z,3.08
2022-09-25T04:16:01.236Z,3.60
2022-09-25T04:19:03.184Z,2.78
2022-09-25T04:22:05.000Z,2.43
2022-09-25T04:25:07.636Z,2.73
2022-09-25T04:28:10.202Z,2.55
2022-09-25T04:31:12.060Z,2.80
2022-09-25T04:34:13.882Z,3.20
2022-09-25T04:37:15.891Z,2.67
2022-09-25T04:40:17.901Z,3.20
2022-09-25T04:43:19.774Z,2.95
2022-09-25T04:46:22.800Z,3.00
2022-09-25T04:49:24.932Z,2.58
2022-09-25T04:52:28.291Z,3.17
2022-09-25T04:55:30.235Z,3.17
2022-09-25T04:58:32.169Z,3.27
2022-09-25T05:01:34.133Z,3.40
2022-09-25T05:04:36.119Z,2.75
2022-09-25T05:07:38.852Z,3.07
2022-09-25T05:13:46.506Z,2.97
2022-09-25T05:16:48.483Z,3.55
2022-09-25T05:19:50.348Z,3.77
2022-09-25T05:22:56.380Z,3.73
2022-09-25T05:26:00.779Z,3.42
2022-09-25T05:29:02.606Z,3.45
2022-09-25T05:32:04.504Z,3.20
2022-09-25T05:35:07.067Z,3.35
2022-09-25T05:38:08.955Z,3.33
2022-09-25T05:41:11.011Z,3.73
2022-09-25T05:44:13.067Z,3.15
2022-09-25T05:47:15.005Z,3.35
2022-09-25T05:50:17.181Z,3.47
2022-09-25T05:53:19.039Z,3.63
2022-09-25T05:56:20.883Z,3.60
2022-09-25T05:59:22.765Z,3.80
2022-09-25T06:02:24.805Z,3.67
2022-09-25T06:05:26.647Z,3.53
2022-09-25T06:08:31.210Z,4.10
2022-09-25T06:11:33.220Z,4.78
2022-09-25T06:14:37.129Z,3.23
2022-09-25T06:17:38.947Z,3.83
2022-09-25T06:20:40.844Z,3.20
2022-09-25T06:23:45.007Z,3.23
2022-09-25T06:26:47.653Z,3.45
2022-09-25T06:29:49.483Z,3.45
2022-09-25T06:32:57.683Z,3.33
2022-09-25T06:36:00.740Z,3.30
2022-09-25T06:39:02.868Z,3.10
2022-09-25T06:42:04.941Z,3.33
2022-09-25T06:45:07.336Z,3.33
2022-09-25T06:48:10.291Z,3.33
2022-09-25T06:51:12.108Z,3.40
2022-09-25T06:54:13.961Z,3.40
2022-09-25T06:57:15.933Z,13.83
2022-09-25T07:00:17.811Z,4.15
2022-09-25T07:03:38.238Z,3.17
2022-09-25T07:06:40.211Z,3.22
2022-09-25T07:09:42.072Z,3.30
2022-09-25T07:12:43.907Z,3.45
2022-09-25T07:15:55.668Z,2.95
2022-09-25T07:19:00.660Z,3.33
2022-09-25T07:22:04.095Z,3.33
2022-09-25T07:25:06.845Z,3.47
2022-09-25T07:28:09.497Z,3.30
2022-09-25T07:31:15.636Z,3.38
2022-09-25T07:34:17.604Z,3.05
2022-09-25T07:37:19.449Z,3.20
2022-09-25T07:40:21.333Z,2.80
2022-09-25T07:43:23.203Z,2.80
2022-09-25T07:46:25.734Z,2.97
2022-09-25T07:49:29.012Z,2.85
2022-09-25T07:52:30.833Z,2.30
2022-09-25T07:55:32.690Z,2.75
2022-09-25T08:01:42.794Z,2.40
2022-09-25T08:04:46.604Z,2.20
2022-09-25T08:07:48.417Z,2.25
2022-09-25T08:10:50.250Z,2.17
2022-09-25T08:13:52.465Z,2.47
2022-09-25T08:16:56.073Z,2.40
2022-09-25T08:19:58.421Z,1.75
2022-09-25T08:23:00.314Z,2.03
2022-09-25T08:26:02.168Z,1.90
2022-09-25T08:29:04.929Z,1.90
2022-09-25T08:32:07.108Z,2.05
2022-09-25T08:35:09.395Z,2.00
2022-09-25T08:38:12.348Z,2.15
2022-09-25T08:41:24.185Z,1.67
2022-09-25T08:44:31.826Z,2.17
2022-09-25T08:47:52.017Z,1.73
2022-09-25T08:50:53.837Z,1.90
2022-09-25T08:53:55.706Z,1.80
2022-09-25T08:57:05.826Z,1.95
2022-09-25T09:00:12.831Z,1.60
2022-09-25T09:03:14.693Z,1.80
2022-09-25T09:06:17.081Z,1.88
2022-09-25T09:09:28.635Z,2.30
2022-09-25T09:12:38.178Z,1.85
2022-09-25T09:16:06.946Z,1.55
2022-09-25T09:19:10.245Z,1.83
2022-09-25T09:22:13.186Z,1.42
2022-09-25T09:25:46.453Z,1.80
2022-09-25T09:29:07.402Z,1.92
2022-09-25T09:35:59.446Z,1.50
2022-09-25T09:39:21.667Z,1.70
2022-09-25T09:42:29.812Z,1.88
2022-09-25T09:45:33.791Z,1.60
2022-09-25T09:48:42.597Z,1.60
2022-09-25T09:51:59.345Z,1.45
2022-09-25T09:55:05.714Z,1.73
2022-09-25T09:58:16.311Z,1.60
2022-09-25T10:01:40.213Z,1.27
2022-09-25T10:04:41.882Z,1.35
2022-09-25T10:07:43.737Z,1.75
2022-09-25T10:10:48.040Z,1.25
2022-09-25T10:13:50.020Z,1.70
2022-09-25T10:16:52.297Z,1.35
2022-09-25T10:19:57.317Z,1.42
2022-09-25T10:22:59.147Z,1.30
2022-09-25T10:26:00.999Z,1.23
2022-09-25T10:29:23.910Z,1.30
2022-09-25T10:32:25.864Z,1.20
2022-09-25T10:35:38.074Z,1.50
2022-09-25T10:38:47.044Z,1.50
2022-09-25T10:41:49.149Z,1.20
2022-09-25T10:44:55.656Z,1.25
2022-09-25T10:48:18.646Z,1.30
2022-09-25T10:51:21.618Z,1.40
2022-09-25T10:54:23.517Z,1.05
2022-09-25T11:03:47.484Z,1.60
2022-09-25T11:06:54.018Z,1.20
2022-09-25T11:09:59.944Z,1.40
2022-09-25T11:13:21.136Z,1.35
2022-09-25T11:16:24.279Z,1.27
2022-09-25T11:19:29.143Z,1.35
2022-09-25T11:22:36.191Z,1.13
2022-09-25T11:25:48.480Z,1.38
2022-09-25T11:28:57.770Z,1.10
2022-09-25T11:32:07.775Z,1.33
2022-09-25T11:35:19.842Z,1.05
2022-09-25T11:38:58.580Z,1.40
2022-09-25T11:42:09.728Z,1.08
2022-09-25T11:45:20.771Z,1.02
2022-09-25T11:48:32.938Z,1.30
2022-09-25T11:55:01.777Z,0.90
2022-09-25T11:58:37.475Z,1.27
2022-09-25T12:01:49.236Z,1.30
2022-09-25T12:05:00.084Z,1.17
2022-09-25T12:08:10.769Z,1.40
2022-09-25T12:11:38.110Z,1.30
2022-09-25T12:14:58.540Z,1.30
2022-09-25T12:18:03.603Z,1.30
2022-09-25T12:21:08.118Z,1.33
2022-09-25T12:24:35.624Z,1.48
2022-09-25T12:27:48.765Z,1.30
2022-09-25T12:31:19.519Z,1.38
2022-09-25T12:34:26.754Z,1.52
2022-09-25T12:37:43.670Z,1.15
2022-09-25T12:40:47.618Z,1.17
2022-09-25T12:44:07.951Z,1.10
2022-09-25T12:47:33.402Z,1.33
2022-09-25T12:51:05.677Z,1.42
2022-09-25T12:54:19.307Z,1.30
2022-09-25T12:57:27.021Z,1.10
2022-09-25T13:00:31.072Z,1.30
2022-09-25T13:03:38.896Z,1.35
2022-09-25T13:06:48.344Z,1.27
2022-09-25T13:09:50.132Z,1.30
2022-09-25T13:12:52.273Z,1.25
2022-09-25T13:15:59.505Z,1.42
2022-09-25T13:19:34.757Z,1.48
2022-09-25T13:22:36.642Z,1.25
2022-09-25T13:25:53.709Z,1.30
2022-09-25T13:28:58.676Z,1.40
2022-09-25T13:32:12.616Z,1.35
2022-09-25T13:35:19.705Z,1.20
2022-09-25T13:38:40.382Z,1.50
2022-09-25T13:41:56.425Z,1.55
2022-09-25T13:45:22.980Z,1.50
2022-09-25T13:48:30.972Z,1.40
2022-09-25T13:51:35.911Z,1.27
2022-09-25T13:54:37.772Z,1.35
2022-09-25T13:57:55.869Z,1.45
2022-09-25T14:00:59.022Z,1.50
2022-09-25T14:04:01.073Z,1.55
2022-09-25T14:07:18.506Z,1.42
2022-09-25T14:10:20.352Z,1.40
2022-09-25T14:13:23.617Z,1.50
2022-09-25T14:16:37.231Z,1.50
2022-09-25T14:19:40.676Z,1.75
2022-09-25T14:22:44.551Z,1.50
2022-09-25T14:25:47.655Z,1.30
2022-09-25T14:28:50.036Z,1.50
2022-09-25T14:32:25.825Z,1.52
2022-09-25T14:36:11.860Z,1.40
2022-09-25T14:39:28.717Z,1.40
2022-09-25T14:42:42.715Z,1.40
2022-09-25T14:46:00.918Z,1.25
2022-09-25T14:49:28.805Z,1.38
2022-09-25T14:52:33.089Z,1.40
2022-09-25T14:55:36.839Z,1.63
2022-09-25T14:58:49.866Z,1.50
2022-09-25T15:01:52.372Z,2.03
2022-09-25T15:04:58.268Z,1.88
2022-09-25T15:08:02.312Z,1.77
2022-09-25T15:11:12.078Z,2.00
2022-09-25T15:14:19.882Z,1.50
2022-09-25T15:17:22.533Z,1.40
2022-09-25T15:20:27.185Z,1.30
2022-09-25T15:23:32.964Z,1.05
2022-09-25T15:26:39.547Z,1.33
2022-09-25T15:29:43.136Z,1.40
2022-09-25T15:32:47.988Z,1.40
2022-09-25T15:35:57.760Z,1.27
2022-09-25T15:39:00.771Z,10.38
2022-09-25T15:42:04.250Z,1.70
2022-09-25T15:45:25.881Z,1.27
2022-09-25T15:48:33.045Z,1.40
2022-09-25T15:51:35.011Z,1.80
2022-09-25T15:54:44.256Z,3.58
2022-09-25T15:57:46.119Z,2.33
2022-09-25T16:01:20.428Z,1.90
2022-09-25T16:04:42.422Z,1.45
2022-09-25T16:07:44.421Z,1.50
2022-09-25T16:10:49.935Z,1.70
2022-09-25T16:13:54.005Z,1.50
2022-09-25T16:16:56.121Z,1.60
2022-09-25T16:20:06.195Z,1.45
2022-09-25T16:23:21.305Z,1.50
2022-09-25T16:26:25.116Z,1.63
2022-09-25T16:29:28.576Z,1.83
2022-09-25T16:32:30.439Z,1.42
2022-09-25T16:36:05.227Z,1.52
2022-09-25T16:39:13.170Z,1.30
2022-09-25T16:42:29.818Z,1.30
2022-09-25T16:45:34.205Z,2.10
2022-09-25T16:48:37.542Z,1.65
2022-09-25T16:51:45.416Z,2.28
2022-09-25T16:54:52.658Z,1.90
2022-09-25T16:57:54.677Z,3.70
2022-09-25T17:00:56.485Z,2.15
2022-09-25T17:03:59.983Z,1.70
2022-09-25T17:07:01.981Z,1.60
2022-09-25T17:10:04.111Z,2.22
2022-09-25T17:13:05.947Z,3.17
2022-09-25T17:16:07.850Z,12.25
2022-09-25T17:19:13.898Z,4.45
2022-09-25T17:22:16.096Z,4.10
2022-09-25T17:25:29.748Z,2.70
2022-09-25T17:28:33.345Z,4.00
2022-09-25T17:31:35.831Z,10.40
2022-09-25T17:34:37.749Z,14.23
2022-09-25T17:37:39.567Z,11.45
2022-09-25T17:40:45.758Z,10.15
2022-09-25T17:43:47.799Z,4.68
2022-09-25T17:46:50.917Z,3.38
2022-09-25T17:49:52.817Z,2.63
2022-09-25T17:52:54.678Z,2.55
2022-09-25T17:55:57.217Z,2.80
2022-09-25T17:58:59.154Z,2.35
2022-09-25T18:02:01.047Z,2.30
2022-09-25T18:05:03.007Z,2.53
2022-09-25T18:08:04.900Z,3.15
2022-09-25T18:11:09.353Z,3.25
2022-09-25T18:14:12.278Z,3.40
2022-09-25T18:17:15.056Z,4.25
2022-09-25T18:20:35.237Z,4.93
2022-09-25T18:23:38.840Z,5.25
2022-09-25T18:26:42.017Z,4.43
2022-09-25T18:29:45.099Z,4.72
2022-09-25T18:32:46.962Z,4.10
2022-09-25T18:35:48.785Z,3.92
2022-09-25T18:38:50.602Z,3.60
2022-09-25T18:41:52.442Z,2.85
2022-09-25T18:44:54.245Z,2.55
2022-09-25T18:47:56.076Z,2.50
2022-09-25T18:50:57.948Z,2.60
2022-09-25T18:54:00.037Z,2.40
2022-09-25T18:57:01.836Z,2.22
2022-09-25T19:00:04.135Z,2.50
2022-09-25T19:03:06.222Z,2.30
2022-09-25T19:06:08.172Z,1.83
2022-09-25T19:09:15.500Z,1.73
2022-09-25T19:12:18.859Z,1.90
2022-09-25T19:15:21.165Z,2.20
2022-09-25T19:18:23.446Z,2.30
2022-09-25T19:21:27.404Z,2.60
2022-09-25T19:24:30.789Z,2.83
2022-09-25T19:27:33.239Z,2.70
2022-09-25T19:33:37.144Z,2.47
2022-09-25T19:36:39.004Z,2.20
2022-09-25T19:39:59.267Z,2.40
2022-09-25T19:43:01.149Z,1.90
2022-09-25T19:46:04.543Z,2.00
2022-09-25T19:49:07.153Z,2.00
2022-09-25T19:55:10.916Z,2.15
2022-09-25T19:58:12.796Z,2.10
2022-09-25T20:01:20.159Z,2.10
2022-09-25T20:04:22.032Z,2.10
2022-09-25T20:07:23.879Z,2.22
2022-09-25T20:10:26.576Z,2.42
2022-09-25T20:13:28.457Z,2.55
2022-09-25T20:16:30.643Z,2.50
2022-09-25T20:19:32.472Z,2.20
2022-09-25T20:22:34.339Z,2.50
2022-09-25T20:25:36.607Z,2.38
2022-09-25T20:28:39.163Z,2.50
2022-09-25T20:37:46.722Z,2.35
2022-09-25T20:40:48.705Z,2.25
2022-09-25T20:43:51.893Z,2.72
2022-09-25T20:46:53.740Z,2.33
2022-09-25T20:49:57.381Z,2.50
2022-09-25T20:52:59.184Z,2.72
2022-09-25T20:56:12.155Z,2.50
2022-09-25T20:59:17.871Z,2.60
2022-09-25T21:02:19.866Z,2.70
2022-09-25T21:05:21.978Z,2.60
2022-09-25T21:08:23.826Z,2.80
2022-09-25T21:11:25.784Z,2.50
2022-09-25T21:14:28.248Z,2.47
2022-09-25T21:17:30.042Z,2.90
2022-09-25T21:20:32.025Z,2.70
2022-09-25T21:23:34.113Z,2.58
2022-09-25T21:26:35.920Z,2.70
2022-09-25T21:29:37.760Z,2.47
2022-09-25T21:32:39.637Z,2.42
2022-09-25T21:35:45.969Z,2.78
2022-09-25T21:38:47.834Z,2.67
2022-09-25T21:41:49.699Z,2.40
2022-09-25T21:44:51.681Z,2.67
2022-09-25T21:47:54.411Z,2.33
2022-09-25T21:50:58.213Z,2.40
2022-09-25T21:54:01.086Z,2.70
2022-09-25T21:57:03.101Z,2.35
2022-09-25T22:00:05.320Z,2.50
2022-09-25T22:03:09.248Z,2.20
2022-09-25T22:06:15.919Z,2.22
2022-09-25T22:09:20.324Z,2.30
2022-09-25T22:12:22.120Z,2.10
2022-09-25T22:15:24.517Z,2.35
2022-09-25T22:18:26.509Z,2.42
2022-09-25T22:21:32.551Z,1.90
2022-09-25T22:24:34.483Z,2.25
2022-09-25T22:27:36.328Z,2.20
2022-09-25T22:30:38.243Z,2.33
2022-09-25T22:33:40.300Z,2.10
2022-09-25T22:36:42.191Z,2.00
2022-09-25T22:39:44.547Z,2.15
2022-09-25T22:42:46.344Z,1.92
2022-09-25T22:45:51.853Z,2.13
2022-09-25T22:48:53.708Z,2.10
2022-09-25T22:51:55.498Z,1.77
2022-09-25T22:54:57.316Z,2.13
2022-09-25T22:57:59.332Z,2.25
2022-09-25T23:01:02.380Z,2.13
2022-09-25T23:04:06.351Z,2.25
2022-09-25T23:07:08.186Z,2.10
2022-09-25T23:10:10.029Z,1.88
2022-09-25T23:13:11.987Z,2.10
2022-09-25T23:16:13.881Z,2.25
2022-09-25T23:19:16.056Z,2.10
2022-09-25T23:22:18.038Z,2.10
2022-09-25T23:25:20.462Z,2.00
2022-09-25T23:28:22.302Z,2.33
2022-09-25T23:31:24.607Z,1.92
2022-09-25T23:34:26.535Z,2.20
2022-09-25T23:37:28.902Z,1.88
2022-09-25T23:40:30.808Z,1.75
2022-09-25T23:43:32.661Z,1.80
2022-09-25T23:46:36.572Z,1.90
2022-09-25T23:49:38.434Z,2.00
2022-09-25T23:52:40.314Z,2.00
2022-09-25T23:55:42.658Z,1.80
2022-09-25T23:58:44.464Z,1.90
